createdAt,value
2023-03-16T00:01:24.611Z,1.98
2023-03-16T00:04:27.196Z,1.93
2023-03-16T00:07:29.812Z,1.65
2023-03-16T00:10:32.396Z,2.42
2023-03-16T00:13:35.100Z,1.90
2023-03-16T00:16:37.770Z,1.45
2023-03-16T00:19:46.765Z,2.27
2023-03-16T00:22:50.382Z,1.70
2023-03-16T00:26:00.152Z,1.95
2023-03-16T00:29:03.129Z,1.92
2023-03-16T00:32:06.171Z,1.90
2023-03-16T00:35:09.721Z,1.47
2023-03-16T00:38:12.721Z,1.30
2023-03-16T00:41:17.113Z,2.35
2023-03-16T00:44:22.005Z,2.05
2023-03-16T00:47:26.753Z,0.93
2023-03-16T00:50:29.816Z,1.67
2023-03-16T00:53:36.354Z,1.70
2023-03-16T00:56:39.000Z,1.40
2023-03-16T00:59:42.307Z,1.13
2023-03-16T01:02:47.855Z,1.52
2023-03-16T01:05:50.684Z,1.90
2023-03-16T01:08:53.624Z,1.42
2023-03-16T01:11:56.299Z,2.03
2023-03-16T01:14:58.896Z,1.30
2023-03-16T01:18:02.176Z,1.40
2023-03-16T01:21:07.377Z,1.67
2023-03-16T01:24:10.724Z,1.25
2023-03-16T01:27:14.481Z,0.73
2023-03-16T01:30:17.362Z,1.30
2023-03-16T01:33:21.993Z,1.33
2023-03-16T01:36:24.885Z,0.77
2023-03-16T01:39:45.673Z,1.75
2023-03-16T01:43:01.013Z,0.63
2023-03-16T01:46:05.286Z,1.55
2023-03-16T01:49:25.310Z,1.15
2023-03-16T01:52:33.569Z,0.87
2023-03-16T01:55:36.626Z,1.10
2023-03-16T01:58:43.415Z,1.33
2023-03-16T02:01:46.893Z,0.82
2023-03-16T02:05:07.241Z,1.05
2023-03-16T02:08:12.612Z,0.93
2023-03-16T02:11:19.149Z,1.02
2023-03-16T02:14:30.783Z,0.85
2023-03-16T02:17:35.088Z,1.40
2023-03-16T02:20:48.644Z,0.88
2023-03-16T02:23:51.638Z,0.73
2023-03-16T02:27:01.999Z,0.50
2023-03-16T02:30:11.821Z,1.10
2023-03-16T02:33:24.892Z,0.60
2023-03-16T02:36:28.252Z,0.68
2023-03-16T02:39:30.956Z,0.57
2023-03-16T02:42:33.700Z,0.55
2023-03-16T02:45:43.897Z,0.47
2023-03-16T02:49:07.955Z,0.43
2023-03-16T02:52:12.759Z,0.57
2023-03-16T02:55:16.015Z,1.03
2023-03-16T02:58:22.289Z,0.45
2023-03-16T03:01:24.986Z,1.40
2023-03-16T03:04:27.691Z,1.10
2023-03-16T03:07:32.165Z,1.23
2023-03-16T03:10:39.437Z,1.07
2023-03-16T03:13:44.680Z,0.45
2023-03-16T03:16:52.948Z,1.00
2023-03-16T03:19:57.408Z,1.10
2023-03-16T03:23:00.144Z,1.17
2023-03-16T03:26:04.367Z,0.77
2023-03-16T03:29:08.168Z,1.05
2023-03-16T03:32:11.396Z,1.30
2023-03-16T03:35:16.039Z,1.17
2023-03-16T03:38:19.345Z,0.90
2023-03-16T03:41:22.611Z,1.27
2023-03-16T03:44:27.112Z,0.90
2023-03-16T03:47:31.160Z,0.90
2023-03-16T03:50:35.262Z,0.85
2023-03-16T03:54:00.640Z,1.60
2023-03-16T03:57:12.190Z,1.10
2023-03-16T04:00:16.052Z,1.40
2023-03-16T04:03:20.560Z,2.30
2023-03-16T04:06:23.477Z,1.02
2023-03-16T04:09:26.662Z,1.05
2023-03-16T04:12:29.532Z,1.33
2023-03-16T04:15:33.104Z,1.65
2023-03-16T04:18:45.478Z,1.02
2023-03-16T04:21:48.337Z,1.13
2023-03-16T04:24:52.363Z,1.42
2023-03-16T04:27:56.640Z,1.90
2023-03-16T04:31:05.508Z,0.98
2023-03-16T04:34:13.217Z,1.20
2023-03-16T04:37:15.979Z,1.52
2023-03-16T04:40:19.692Z,1.63
2023-03-16T04:43:29.041Z,1.53
2023-03-16T04:46:38.509Z,1.27
2023-03-16T04:49:45.018Z,1.48
2023-03-16T04:52:48.639Z,1.30
2023-03-16T04:55:52.044Z,1.05
2023-03-16T04:58:57.029Z,1.17
2023-03-16T05:02:02.132Z,1.33
2023-03-16T05:05:06.149Z,1.23
2023-03-16T05:08:10.915Z,1.45
2023-03-16T05:11:15.547Z,1.63
2023-03-16T05:14:27.999Z,1.07
2023-03-16T05:17:46.778Z,2.22
2023-03-16T05:20:56.050Z,1.65
2023-03-16T05:24:01.312Z,2.33
2023-03-16T05:27:04.126Z,3.42
2023-03-16T05:30:09.503Z,2.87
2023-03-16T05:33:14.377Z,3.03
2023-03-16T05:36:18.867Z,3.38
2023-03-16T05:39:24.743Z,3.72
2023-03-16T05:42:27.457Z,2.58
2023-03-16T05:45:35.299Z,3.00
2023-03-16T05:48:44.453Z,4.38
2023-03-16T05:51:50.508Z,3.38
2023-03-16T05:54:53.308Z,2.28
2023-03-16T05:57:56.258Z,4.13
2023-03-16T06:01:01.898Z,2.90
2023-03-16T06:04:07.488Z,3.10
2023-03-16T06:07:14.924Z,3.22
2023-03-16T06:10:19.052Z,3.53
2023-03-16T06:13:22.087Z,3.72
2023-03-16T06:16:25.490Z,2.37
2023-03-16T06:19:28.474Z,3.90
2023-03-16T06:22:35.489Z,3.42
2023-03-16T06:25:40.587Z,2.15
2023-03-16T06:28:45.512Z,3.45
2023-03-16T06:31:53.105Z,4.17
2023-03-16T06:34:59.686Z,3.60
2023-03-16T06:38:02.536Z,4.22
2023-03-16T06:41:17.990Z,3.33
2023-03-16T06:44:22.526Z,3.95
2023-03-16T06:47:35.139Z,4.07
2023-03-16T06:50:38.916Z,3.92
2023-03-16T06:53:41.789Z,4.28
2023-03-16T06:56:46.300Z,4.13
2023-03-16T06:59:49.645Z,4.05
2023-03-16T07:02:52.589Z,3.83
2023-03-16T07:05:56.870Z,5.38
2023-03-16T07:09:01.612Z,3.90
2023-03-16T07:12:06.531Z,4.53
2023-03-16T07:15:10.049Z,4.32
2023-03-16T07:18:13.042Z,4.80
2023-03-16T07:21:17.442Z,3.97
2023-03-16T07:24:22.686Z,4.43
2023-03-16T07:27:26.071Z,3.40
2023-03-16T07:30:29.890Z,5.28
2023-03-16T07:33:34.349Z,3.50
2023-03-16T07:36:40.364Z,3.70
2023-03-16T07:39:43.788Z,3.47
2023-03-16T07:42:54.393Z,1.58
2023-03-16T07:46:13.932Z,1.63
2023-03-16T07:49:17.166Z,1.70
2023-03-16T07:52:21.451Z,3.67
2023-03-16T07:55:24.416Z,2.33
2023-03-16T07:58:28.351Z,2.25
2023-03-16T08:01:31.338Z,1.38
2023-03-16T08:04:34.591Z,2.70
2023-03-16T08:07:38.536Z,1.05
2023-03-16T08:10:49.397Z,1.85
2023-03-16T08:13:58.192Z,1.40
2023-03-16T08:17:08.314Z,1.98
2023-03-16T08:20:14.987Z,2.70
2023-03-16T08:23:18.993Z,2.17
2023-03-16T08:26:23.584Z,2.25
2023-03-16T08:29:30.999Z,2.15
2023-03-16T08:32:34.040Z,2.67
2023-03-16T08:35:36.821Z,1.80
2023-03-16T08:38:40.199Z,4.60
2023-03-16T08:41:47.148Z,3.13
2023-03-16T08:45:17.523Z,2.35
2023-03-16T08:48:20.887Z,3.70
2023-03-16T08:51:26.128Z,3.80
2023-03-16T08:54:29.170Z,3.33
2023-03-16T08:57:35.577Z,2.28
2023-03-16T09:00:39.437Z,1.92
2023-03-16T09:03:42.593Z,2.05
2023-03-16T09:06:46.479Z,2.63
2023-03-16T09:09:50.966Z,1.10
2023-03-16T09:12:54.208Z,1.92
2023-03-16T09:15:57.056Z,1.77
2023-03-16T09:18:59.933Z,2.22
2023-03-16T09:22:05.475Z,1.53
2023-03-16T09:25:11.369Z,1.42
2023-03-16T09:28:14.199Z,1.48
2023-03-16T09:31:19.553Z,1.55
2023-03-16T09:37:44.477Z,1.20
2023-03-16T09:40:50.387Z,1.50
2023-03-16T09:44:15.973Z,2.22
2023-03-16T09:47:24.913Z,1.40
2023-03-16T09:50:47.374Z,0.85
2023-03-16T09:53:56.734Z,0.57
2023-03-16T09:57:01.847Z,1.80
2023-03-16T10:00:18.132Z,1.33
2023-03-16T10:03:36.845Z,2.08
2023-03-16T10:07:12.396Z,1.92
2023-03-16T10:10:52.937Z,1.13
2023-03-16T10:14:17.868Z,2.80
2023-03-16T10:17:28.250Z,1.27
2023-03-16T10:20:33.433Z,1.13
2023-03-16T10:23:36.654Z,2.30
2023-03-16T10:26:40.948Z,0.90
2023-03-16T10:29:43.615Z,1.17
2023-03-16T10:32:47.339Z,1.55
2023-03-16T10:36:27.213Z,0.98
2023-03-16T10:39:36.529Z,0.90
2023-03-16T10:42:40.037Z,1.00
2023-03-16T10:45:43.305Z,0.55
2023-03-16T10:48:54.898Z,0.43
2023-03-16T10:51:59.816Z,0.60
2023-03-16T10:55:11.023Z,0.68
2023-03-16T10:58:25.379Z,0.50
2023-03-16T11:01:29.598Z,0.52
2023-03-16T11:04:33.513Z,0.38
2023-03-16T11:07:36.705Z,1.65
2023-03-16T11:10:55.589Z,0.57
2023-03-16T11:14:00.778Z,0.60
2023-03-16T11:17:19.551Z,0.40
2023-03-16T11:20:27.664Z,0.25
2023-03-16T11:23:35.688Z,0.17
2023-03-16T11:26:40.856Z,1.10
2023-03-16T11:30:06.909Z,0.43
2023-03-16T11:33:14.297Z,0.73
2023-03-16T11:36:31.818Z,0.70
2023-03-16T11:39:44.432Z,0.65
2023-03-16T11:43:06.341Z,0.50
2023-03-16T11:46:16.893Z,0.30
2023-03-16T11:49:30.797Z,0.40
2023-03-16T11:52:48.488Z,0.63
2023-03-16T11:56:17.777Z,0.40
2023-03-16T11:59:36.089Z,0.85
2023-03-16T12:03:01.308Z,0.47
2023-03-16T12:06:23.417Z,0.20
2023-03-16T12:09:47.271Z,0.45
2023-03-16T12:13:21.773Z,0.68
2023-03-16T12:16:49.097Z,0.50
2023-03-16T12:19:57.010Z,1.07
2023-03-16T12:23:30.747Z,1.17
2023-03-16T12:26:57.075Z,1.27
2023-03-16T12:30:25.776Z,0.98
2023-03-16T12:33:56.557Z,1.33
2023-03-16T12:37:18.368Z,1.50
2023-03-16T12:40:36.129Z,0.98
2023-03-16T12:44:07.168Z,0.98
2023-03-16T12:47:43.095Z,1.05
2023-03-16T12:50:55.254Z,1.35
2023-03-16T12:53:59.259Z,1.13
2023-03-16T12:57:05.193Z,0.55
2023-03-16T13:00:10.063Z,0.80
2023-03-16T13:03:20.719Z,0.25
2023-03-16T13:06:24.631Z,1.00
2023-03-16T13:09:29.230Z,0.20
2023-03-16T13:12:37.105Z,0.60
2023-03-16T13:15:40.075Z,0.25
2023-03-16T13:18:45.300Z,1.05
2023-03-16T13:21:48.544Z,1.08
2023-03-16T13:24:59.834Z,0.73
2023-03-16T13:28:02.585Z,1.17
2023-03-16T13:31:41.812Z,0.40
2023-03-16T13:34:49.997Z,0.50
2023-03-16T13:37:54.211Z,1.65
2023-03-16T13:41:02.549Z,1.73
2023-03-16T13:44:05.381Z,0.80
2023-03-16T13:47:08.580Z,0.55
2023-03-16T13:50:13.859Z,0.30
2023-03-16T13:53:21.494Z,0.50
2023-03-16T13:56:28.931Z,2.73
2023-03-16T13:59:31.698Z,1.85
2023-03-16T14:02:44.385Z,1.33
2023-03-16T14:05:47.797Z,0.77
2023-03-16T14:08:54.237Z,0.32
2023-03-16T14:11:57.860Z,0.30
2023-03-16T14:15:00.776Z,0.73
2023-03-16T14:18:21.691Z,1.30
2023-03-16T14:21:26.682Z,2.58
2023-03-16T14:24:40.615Z,1.05
2023-03-16T14:27:45.432Z,1.50
2023-03-16T14:31:02.314Z,0.63
2023-03-16T14:34:22.273Z,1.33
2023-03-16T14:37:34.887Z,0.95
2023-03-16T14:40:39.993Z,0.82
2023-03-16T14:44:01.957Z,1.10
2023-03-16T14:47:05.977Z,1.20
2023-03-16T14:50:13.209Z,1.05
2023-03-16T14:53:15.932Z,0.85
2023-03-16T14:56:18.641Z,0.85
2023-03-16T14:59:22.151Z,0.70
2023-03-16T15:02:31.309Z,0.60
2023-03-16T15:05:42.903Z,1.25
2023-03-16T15:08:46.926Z,1.40
2023-03-16T15:11:49.577Z,0.93
2023-03-16T15:15:10.816Z,1.40
2023-03-16T15:18:13.431Z,1.75
2023-03-16T15:21:23.374Z,1.42
2023-03-16T15:24:29.048Z,1.00
2023-03-16T15:27:35.626Z,0.93
2023-03-16T15:30:39.175Z,0.53
2023-03-16T15:33:42.306Z,1.55
2023-03-16T15:36:44.999Z,2.10
2023-03-16T15:39:48.053Z,3.13
2023-03-16T15:42:51.036Z,1.40
2023-03-16T15:45:54.343Z,1.57
2023-03-16T15:48:57.038Z,0.60
2023-03-16T15:51:59.664Z,0.60
2023-03-16T15:55:07.786Z,0.40
2023-03-16T15:58:20.431Z,0.10
2023-03-16T16:01:30.133Z,0.97
2023-03-16T16:04:34.010Z,0.20
2023-03-16T16:07:36.691Z,0.32
2023-03-16T16:10:40.861Z,0.13
2023-03-16T16:13:45.236Z,0.20
2023-03-16T16:16:48.194Z,0.60
2023-03-16T16:19:53.220Z,0.10
2023-03-16T16:23:00.022Z,0.77
2023-03-16T16:26:04.663Z,0.40
2023-03-16T16:29:35.174Z,0.32
2023-03-16T16:32:43.006Z,0.77
2023-03-16T16:35:45.953Z,2.40
2023-03-16T16:38:49.921Z,3.65
2023-03-16T16:41:54.981Z,4.80
2023-03-16T16:44:58.067Z,4.32
2023-03-16T16:48:01.074Z,3.40
2023-03-16T16:51:07.218Z,1.70
2023-03-16T16:54:21.480Z,1.65
2023-03-16T16:57:24.928Z,1.40
2023-03-16T17:00:29.339Z,1.27
2023-03-16T17:03:32.055Z,1.00
2023-03-16T17:06:35.631Z,0.80
2023-03-16T17:09:39.096Z,1.00
2023-03-16T17:12:41.980Z,1.75
2023-03-16T17:15:45.342Z,0.85
2023-03-16T17:18:48.608Z,1.90
2023-03-16T17:21:52.462Z,1.75
2023-03-16T17:24:55.458Z,2.60
2023-03-16T17:27:58.136Z,2.47
2023-03-16T17:31:00.954Z,14.07
2023-03-16T17:34:09.492Z,6.87
2023-03-16T17:37:18.221Z,7.57
2023-03-16T17:40:25.524Z,6.70
2023-03-16T17:43:28.723Z,5.35
2023-03-16T17:46:31.852Z,12.20
2023-03-16T17:49:34.512Z,3.20
2023-03-16T17:52:37.760Z,3.00
2023-03-16T17:55:41.356Z,2.72
2023-03-16T17:58:45.934Z,2.28
2023-03-16T18:01:48.996Z,2.15
2023-03-16T18:04:52.272Z,3.00
2023-03-16T18:07:56.616Z,1.98
2023-03-16T18:11:01.926Z,2.67
2023-03-16T18:14:06.919Z,3.33
2023-03-16T18:17:27.216Z,3.17
2023-03-16T18:20:36.495Z,3.77
2023-03-16T18:23:39.747Z,4.63
2023-03-16T18:26:42.807Z,5.35
2023-03-16T18:29:47.080Z,5.40
2023-03-16T18:32:50.736Z,7.55
2023-03-16T18:35:55.611Z,9.00
2023-03-16T18:39:00.846Z,11.70
2023-03-16T18:42:04.329Z,13.63
2023-03-16T18:45:10.974Z,19.52
2023-03-16T18:48:29.882Z,19.25
2023-03-16T18:51:32.915Z,14.80
2023-03-16T18:54:36.311Z,14.35
2023-03-16T18:57:40.100Z,13.93
2023-03-16T19:00:46.308Z,7.88
2023-03-16T19:03:49.799Z,18.13
2023-03-16T19:06:54.179Z,13.57
2023-03-16T19:09:57.154Z,11.77
2023-03-16T19:12:59.913Z,13.57
2023-03-16T19:16:04.259Z,11.63
2023-03-16T19:19:07.263Z,8.32
2023-03-16T19:22:17.080Z,21.37
2023-03-16T19:25:26.480Z,14.93
2023-03-16T19:28:34.505Z,26.85
2023-03-16T19:31:38.063Z,7.05
2023-03-16T19:34:41.315Z,14.73
2023-03-16T19:37:45.197Z,13.57
2023-03-16T19:40:52.675Z,6.20
2023-03-16T19:44:00.517Z,9.95
2023-03-16T19:47:04.785Z,9.93
2023-03-16T19:50:21.048Z,6.13
2023-03-16T19:53:24.139Z,5.77
2023-03-16T19:56:27.647Z,9.80
2023-03-16T19:59:32.864Z,5.40
2023-03-16T20:02:40.810Z,4.50
2023-03-16T20:05:43.820Z,16.08
2023-03-16T20:08:47.570Z,20.10
2023-03-16T20:11:50.810Z,7.70
2023-03-16T20:14:55.607Z,33.10
2023-03-16T20:17:58.863Z,28.23
2023-03-16T20:21:02.238Z,17.45
2023-03-16T20:24:15.379Z,7.43
2023-03-16T20:27:20.535Z,4.57
2023-03-16T20:30:23.974Z,6.00
2023-03-16T20:33:28.865Z,8.40
2023-03-16T20:36:31.972Z,9.23
2023-03-16T20:39:38.593Z,19.93
2023-03-16T20:42:52.281Z,20.10
2023-03-16T20:45:57.966Z,14.70
2023-03-16T20:49:02.074Z,13.25
2023-03-16T20:52:17.397Z,9.10
2023-03-16T20:55:23.852Z,12.57
2023-03-16T20:58:28.194Z,13.15
2023-03-16T21:01:32.261Z,14.00
2023-03-16T21:04:35.130Z,21.42
2023-03-16T21:07:38.004Z,16.25
2023-03-16T21:10:42.521Z,14.00
2023-03-16T21:13:45.530Z,13.85
2023-03-16T21:16:48.347Z,12.18
2023-03-16T21:19:51.506Z,11.88
2023-03-16T21:22:54.335Z,9.80
2023-03-16T21:25:59.772Z,9.63
2023-03-16T21:29:06.808Z,11.32
2023-03-16T21:32:22.196Z,7.25
2023-03-16T21:35:30.780Z,6.90
2023-03-16T21:38:33.918Z,9.85
2023-03-16T21:41:37.901Z,8.83
2023-03-16T21:44:40.606Z,8.40
2023-03-16T21:47:43.505Z,8.70
2023-03-16T21:50:48.122Z,12.82
2023-03-16T21:53:51.623Z,12.52
2023-03-16T21:56:54.201Z,13.93
2023-03-16T21:59:57.024Z,15.88
2023-03-16T22:03:01.124Z,15.23
2023-03-16T22:06:03.993Z,10.77
2023-03-16T22:09:07.573Z,13.02
2023-03-16T22:12:14.051Z,9.97
2023-03-16T22:15:17.333Z,7.55
2023-03-16T22:18:29.106Z,7.80
2023-03-16T22:21:50.562Z,6.93
2023-03-16T22:24:53.198Z,9.30
2023-03-16T22:27:56.038Z,6.80
2023-03-16T22:31:01.009Z,7.15
2023-03-16T22:34:04.711Z,6.50
2023-03-16T22:37:08.034Z,6.18
2023-03-16T22:40:17.384Z,6.60
2023-03-16T22:43:24.213Z,11.20
2023-03-16T22:46:28.513Z,6.22
2023-03-16T22:49:31.156Z,4.90
2023-03-16T22:52:35.229Z,5.53
2023-03-16T22:55:39.653Z,4.25
2023-03-16T22:58:42.268Z,5.67
2023-03-16T23:01:47.714Z,4.55
2023-03-16T23:04:50.610Z,4.45
2023-03-16T23:07:53.887Z,4.97
2023-03-16T23:10:56.602Z,4.00
2023-03-16T23:13:59.863Z,3.97
2023-03-16T23:17:02.838Z,3.58
2023-03-16T23:20:24.459Z,4.20
2023-03-16T23:23:27.629Z,3.97
2023-03-16T23:26:30.264Z,3.50
2023-03-16T23:29:33.306Z,7.00
2023-03-16T23:32:36.196Z,5.05
2023-03-16T23:35:39.502Z,4.00
2023-03-16T23:38:42.898Z,4.18
2023-03-16T23:41:47.680Z,4.25
2023-03-16T23:44:50.315Z,2.77
2023-03-16T23:47:54.639Z,3.60
2023-03-16T23:50:57.606Z,3.15
2023-03-16T23:54:01.203Z,4.80
2023-03-16T23:57:04.084Z,4.18
